createdAt,value
2019-04-26T00:00:57.758Z,21.00
2019-04-26T00:03:43.097Z,19.77
2019-04-26T00:06:21.016Z,19.98
2019-04-26T00:09:19.007Z,19.82
2019-04-26T00:12:04.813Z,20.50
2019-04-26T00:15:14.253Z,21.17
2019-04-26T00:17:56.148Z,21.15
2019-04-26T00:20:35.139Z,19.23
2019-04-26T00:23:12.463Z,20.82
2019-04-26T00:25:50.123Z,19.25
2019-04-26T00:28:27.631Z,19.62
2019-04-26T00:31:05.507Z,21.27
2019-04-26T00:33:43.177Z,20.77
2019-04-26T00:36:20.993Z,20.23
2019-04-26T00:38:58.365Z,20.35
2019-04-26T00:41:37.159Z,19.82
2019-04-26T00:44:14.942Z,19.80
2019-04-26T00:46:54.601Z,20.77
2019-04-26T00:49:43.467Z,21.42
2019-04-26T00:52:15.721Z,20.92
2019-04-26T00:54:53.361Z,21.93
2019-04-26T00:57:33.171Z,21.48
2019-04-26T01:00:12.716Z,20.12
2019-04-26T01:03:02.633Z,21.15
2019-04-26T01:05:40.886Z,22.15
2019-04-26T01:08:19.153Z,21.35
2019-04-26T01:10:57.418Z,21.80
2019-04-26T01:13:35.512Z,21.75
2019-04-26T01:16:13.642Z,21.70
2019-04-26T01:18:52.780Z,22.17
2019-04-26T01:21:36.818Z,22.58
2019-04-26T01:24:18.302Z,22.40
2019-04-26T01:26:59.020Z,22.58
2019-04-26T01:32:15.804Z,22.00
2019-04-26T01:34:54.903Z,22.10
2019-04-26T01:37:33.137Z,22.13
2019-04-26T01:40:14.762Z,21.62
2019-04-26T01:43:17.202Z,21.62
2019-04-26T01:46:01.959Z,21.65
2019-04-26T01:48:48.398Z,20.30
2019-04-26T01:51:34.541Z,20.40
2019-04-26T01:54:15.195Z,18.40
2019-04-26T01:56:56.935Z,18.50
2019-04-26T01:59:37.517Z,20.30
2019-04-26T02:02:32.861Z,19.55
2019-04-26T02:05:15.560Z,21.15
2019-04-26T02:07:54.330Z,20.02
2019-04-26T02:10:32.670Z,23.27
2019-04-26T02:13:10.254Z,20.05
2019-04-26T02:15:48.078Z,19.95
2019-04-26T02:18:25.559Z,19.87
2019-04-26T02:21:16.767Z,20.80
2019-04-26T02:24:21.007Z,21.45
2019-04-26T02:26:59.225Z,21.90
2019-04-26T02:29:36.497Z,22.42
2019-04-26T02:32:13.942Z,22.58
2019-04-26T02:34:51.143Z,22.30
2019-04-26T02:37:30.868Z,24.20
2019-04-26T02:40:13.127Z,24.02
2019-04-26T02:42:51.522Z,22.58
2019-04-26T02:46:00.511Z,24.30
2019-04-26T02:48:49.833Z,24.00
2019-04-26T02:51:36.169Z,23.80
2019-04-26T02:54:22.635Z,23.80
2019-04-26T02:57:00.698Z,23.77
2019-04-26T02:59:44.372Z,24.87
2019-04-26T03:02:31.118Z,24.20
2019-04-26T03:05:10.488Z,25.62
2019-04-26T03:08:15.168Z,23.23
2019-04-26T03:11:09.477Z,22.52
2019-04-26T03:14:20.386Z,23.07
2019-04-26T03:17:22.194Z,23.15
2019-04-26T03:20:04.474Z,21.68
2019-04-26T03:23:07.273Z,22.35
2019-04-26T03:26:26.747Z,23.62
2019-04-26T03:29:16.017Z,22.20
2019-04-26T03:32:16.962Z,22.85
2019-04-26T03:35:21.335Z,23.70
2019-04-26T03:38:21.370Z,23.47
2019-04-26T03:41:25.006Z,22.70
2019-04-26T03:44:26.535Z,23.60
2019-04-26T03:47:07.866Z,24.25
2019-04-26T03:50:20.013Z,25.27
2019-04-26T03:53:18.603Z,23.95
2019-04-26T03:57:00.545Z,25.45
2019-04-26T03:59:48.332Z,24.85
2019-04-26T04:02:53.524Z,23.57
2019-04-26T04:05:43.737Z,24.32
2019-04-26T04:08:26.449Z,24.43
2019-04-26T04:11:08.347Z,22.42
2019-04-26T04:13:59.849Z,22.60
2019-04-26T04:17:07.168Z,23.85
2019-04-26T04:20:44.358Z,24.37
2019-04-26T04:23:48.773Z,25.80
2019-04-26T04:26:54.535Z,26.60
2019-04-26T04:29:56.835Z,24.10
2019-04-26T04:33:02.399Z,22.40
2019-04-26T04:35:53.071Z,25.88
2019-04-26T04:38:42.720Z,20.32
2019-04-26T04:41:35.646Z,20.88
2019-04-26T04:44:26.274Z,21.45
2019-04-26T04:47:35.734Z,23.22
2019-04-26T04:50:30.621Z,20.95
2019-04-26T04:53:33.562Z,22.00
2019-04-26T04:56:43.657Z,21.42
2019-04-26T04:59:31.689Z,26.95
2019-04-26T05:02:46.679Z,25.75
2019-04-26T05:06:18.260Z,25.00
2019-04-26T05:09:29.600Z,23.15
2019-04-26T05:12:39.439Z,18.65
2019-04-26T05:15:52.953Z,19.77
2019-04-26T05:18:57.502Z,19.48
2019-04-26T05:22:13.640Z,19.70
2019-04-26T05:25:55.595Z,18.45
2019-04-26T05:29:13.792Z,18.02
2019-04-26T05:32:09.137Z,17.23
2019-04-26T05:34:54.953Z,15.58
2019-04-26T05:38:18.014Z,15.63
2019-04-26T05:41:37.159Z,17.80
2019-04-26T05:44:26.619Z,15.75
2019-04-26T05:47:27.188Z,18.40
2019-04-26T05:50:33.238Z,15.77
2019-04-26T05:54:06.442Z,16.45
2019-04-26T05:57:22.079Z,17.20
2019-04-26T06:00:36.059Z,15.68
2019-04-26T06:03:44.495Z,16.10
2019-04-26T06:06:48.861Z,15.93
2019-04-26T06:10:14.241Z,16.97
2019-04-26T06:13:31.024Z,18.35
2019-04-26T06:16:52.134Z,16.15
2019-04-26T06:20:02.574Z,16.55
2019-04-26T06:22:58.234Z,16.32
2019-04-26T06:25:57.507Z,16.15
2019-04-26T06:29:06.916Z,16.37
2019-04-26T06:32:18.379Z,17.12
2019-04-26T06:35:16.598Z,19.00
2019-04-26T06:38:30.396Z,15.50
2019-04-26T06:42:06.173Z,16.75
2019-04-26T06:46:02.828Z,20.25
2019-04-26T06:49:01.029Z,14.93
2019-04-26T06:51:44.570Z,14.78
2019-04-26T06:54:36.042Z,14.85
2019-04-26T06:58:13.907Z,14.85
2019-04-26T07:01:27.934Z,15.80
2019-04-26T07:04:18.859Z,15.85
2019-04-26T07:10:38.224Z,17.55
2019-04-26T07:13:49.801Z,16.02
2019-04-26T07:16:49.632Z,16.60
2019-04-26T07:20:30.942Z,16.07
2019-04-26T07:23:37.347Z,15.90
2019-04-26T07:27:03.541Z,14.63
2019-04-26T07:30:12.070Z,16.97
2019-04-26T07:33:32.444Z,14.43
2019-04-26T07:36:16.423Z,13.70
2019-04-26T07:39:24.598Z,14.95
2019-04-26T07:42:46.005Z,17.35
2019-04-26T07:45:50.733Z,15.43
2019-04-26T07:48:40.075Z,17.77
2019-04-26T07:52:04.477Z,15.83
2019-04-26T07:55:38.355Z,15.55
2019-04-26T07:58:36.723Z,18.70
2019-04-26T08:01:29.671Z,13.65
2019-04-26T08:04:11.546Z,16.80
2019-04-26T08:06:56.030Z,14.55
2019-04-26T08:09:36.766Z,14.53
2019-04-26T08:12:17.416Z,14.93
2019-04-26T08:15:34.881Z,14.78
2019-04-26T08:18:19.926Z,14.00
2019-04-26T08:21:23.766Z,14.68
2019-04-26T08:24:24.497Z,14.98
2019-04-26T08:27:16.104Z,13.58
2019-04-26T08:29:50.922Z,13.05
2019-04-26T08:32:33.396Z,12.53
2019-04-26T08:35:23.348Z,14.13
2019-04-26T08:38:15.955Z,18.12
2019-04-26T08:40:49.314Z,13.53
2019-04-26T08:43:46.840Z,15.50
2019-04-26T08:46:47.140Z,10.50
2019-04-26T08:49:48.553Z,12.33
2019-04-26T08:52:31.590Z,12.80
2019-04-26T08:55:10.574Z,20.92
2019-04-26T08:57:51.392Z,11.00
2019-04-26T09:00:57.121Z,10.55
2019-04-26T09:04:03.586Z,11.65
2019-04-26T09:07:01.673Z,10.48
2019-04-26T09:09:42.488Z,11.45
2019-04-26T09:12:23.152Z,10.35
2019-04-26T09:15:06.945Z,10.63
2019-04-26T09:17:44.441Z,11.78
2019-04-26T09:20:28.736Z,11.00
2019-04-26T09:23:23.789Z,12.53
2019-04-26T09:26:02.394Z,10.72
2019-04-26T09:28:57.782Z,11.35
2019-04-26T09:31:42.099Z,11.68
2019-04-26T09:34:19.443Z,15.58
2019-04-26T09:36:57.045Z,11.33
2019-04-26T09:39:34.963Z,16.50
2019-04-26T09:42:31.171Z,10.60
2019-04-26T09:45:28.152Z,10.32
2019-04-26T09:48:27.250Z,10.48
2019-04-26T09:51:05.128Z,11.85
2019-04-26T09:53:44.793Z,9.80
2019-04-26T09:56:22.612Z,9.90
2019-04-26T09:59:01.565Z,10.95
2019-04-26T10:01:38.736Z,10.35
2019-04-26T10:04:16.407Z,11.53
2019-04-26T10:06:54.652Z,16.02
2019-04-26T10:09:33.020Z,13.65
2019-04-26T10:12:18.764Z,11.43
2019-04-26T10:15:14.976Z,11.03
2019-04-26T10:17:53.029Z,9.73
2019-04-26T10:20:30.812Z,11.43
2019-04-26T10:23:08.544Z,10.30
2019-04-26T10:25:47.331Z,10.43
2019-04-26T10:28:25.383Z,11.20
2019-04-26T10:31:03.218Z,13.50
2019-04-26T10:33:40.664Z,11.83
2019-04-26T10:36:18.882Z,11.97
2019-04-26T10:38:58.351Z,12.45
2019-04-26T10:41:35.849Z,11.70
2019-04-26T10:44:14.065Z,17.05
2019-04-26T10:46:55.720Z,19.07
2019-04-26T10:49:44.556Z,16.65
2019-04-26T10:52:42.397Z,16.17
2019-04-26T10:55:39.312Z,14.20
2019-04-26T10:58:22.449Z,15.38
2019-04-26T11:01:01.340Z,15.15
2019-04-26T11:03:38.871Z,14.50
2019-04-26T11:06:17.625Z,14.20
2019-04-26T11:08:54.861Z,15.72
2019-04-26T11:11:32.625Z,12.60
2019-04-26T11:14:11.250Z,14.00
2019-04-26T11:16:48.694Z,18.00
2019-04-26T11:19:26.307Z,18.52
2019-04-26T11:22:04.371Z,21.20
2019-04-26T11:24:42.855Z,18.90
2019-04-26T11:27:20.629Z,18.45
2019-04-26T11:30:00.066Z,19.12
2019-04-26T11:32:38.175Z,17.50
2019-04-26T11:35:17.280Z,19.42
2019-04-26T11:37:55.235Z,26.45
2019-04-26T11:40:33.720Z,20.77
2019-04-26T11:43:11.702Z,18.95
2019-04-26T11:45:50.245Z,18.73
2019-04-26T11:48:29.288Z,17.42
2019-04-26T11:51:07.574Z,16.25
2019-04-26T11:53:46.231Z,17.27
2019-04-26T11:56:24.124Z,25.45
2019-04-26T11:59:01.488Z,20.43
2019-04-26T12:01:40.565Z,19.37
2019-04-26T12:04:36.373Z,29.23
2019-04-26T12:07:23.545Z,20.32
2019-04-26T12:10:05.836Z,18.40
2019-04-26T12:12:43.087Z,18.57
2019-04-26T12:15:30.057Z,20.65
2019-04-26T12:18:01.446Z,19.35
2019-04-26T12:20:41.496Z,18.75
2019-04-26T12:23:20.816Z,19.90
2019-04-26T12:25:57.880Z,19.27
2019-04-26T12:28:39.579Z,20.50
2019-04-26T12:31:15.630Z,19.20
2019-04-26T12:33:53.895Z,20.92
2019-04-26T12:36:31.251Z,18.55
2019-04-26T12:39:10.117Z,19.52
2019-04-26T12:41:47.993Z,18.77
2019-04-26T12:44:28.054Z,19.98
2019-04-26T12:47:19.573Z,17.67
2019-04-26T12:49:58.950Z,25.32
2019-04-26T12:52:37.551Z,18.87
2019-04-26T12:55:18.368Z,16.77
2019-04-26T12:57:54.547Z,21.40
2019-04-26T13:00:32.978Z,18.70
2019-04-26T13:03:20.096Z,17.70
2019-04-26T13:05:57.776Z,15.35
2019-04-26T13:11:27.708Z,17.45
2019-04-26T13:14:09.340Z,16.52
2019-04-26T13:16:57.230Z,17.25
2019-04-26T13:19:33.259Z,17.20
2019-04-26T13:22:12.513Z,15.40
2019-04-26T13:24:50.041Z,16.70
2019-04-26T13:27:27.552Z,16.02
2019-04-26T13:30:06.780Z,15.25
2019-04-26T13:32:49.165Z,19.75
2019-04-26T13:35:24.734Z,15.38
2019-04-26T13:38:05.143Z,16.55
2019-04-26T13:40:52.986Z,15.95
2019-04-26T13:43:30.286Z,16.75
2019-04-26T13:46:37.102Z,16.37
2019-04-26T13:49:37.021Z,17.32
2019-04-26T13:52:14.602Z,17.80
2019-04-26T13:54:55.535Z,18.57
2019-04-26T13:57:31.188Z,16.57
2019-04-26T14:00:11.718Z,19.65
2019-04-26T14:02:49.917Z,18.42
2019-04-26T14:05:27.526Z,17.57
2019-04-26T14:08:05.010Z,14.28
2019-04-26T14:10:45.559Z,15.13
2019-04-26T14:13:24.943Z,15.28
2019-04-26T14:16:02.227Z,13.55
2019-04-26T14:18:40.755Z,15.05
2019-04-26T14:21:18.515Z,18.05
2019-04-26T14:24:19.598Z,14.50
2019-04-26T14:27:01.062Z,14.33
2019-04-26T14:29:50.440Z,14.35
2019-04-26T14:32:27.749Z,18.35
2019-04-26T14:35:05.599Z,14.90
2019-04-26T14:37:45.443Z,15.45
2019-04-26T14:40:22.316Z,13.43
2019-04-26T14:43:06.476Z,13.55
2019-04-26T14:45:39.887Z,16.50
2019-04-26T14:48:20.904Z,18.70
2019-04-26T14:51:07.432Z,15.80
2019-04-26T14:53:38.011Z,15.98
2019-04-26T14:56:15.358Z,16.05
2019-04-26T14:58:52.887Z,21.17
2019-04-26T15:01:42.392Z,18.90
2019-04-26T15:04:51.190Z,15.98
2019-04-26T15:07:32.490Z,28.32
2019-04-26T15:10:10.943Z,16.02
2019-04-26T15:12:58.600Z,18.40
2019-04-26T15:15:33.211Z,16.93
2019-04-26T15:18:09.142Z,28.90
2019-04-26T15:20:46.452Z,16.70
2019-04-26T15:23:26.633Z,17.75
2019-04-26T15:26:04.193Z,17.17
2019-04-26T15:28:43.673Z,17.17
2019-04-26T15:31:24.691Z,17.87
2019-04-26T15:34:00.201Z,17.48
2019-04-26T15:36:37.620Z,15.70
2019-04-26T15:39:33.130Z,15.70
2019-04-26T15:42:35.748Z,15.55
2019-04-26T15:45:47.271Z,14.80
2019-04-26T15:48:43.038Z,14.43
2019-04-26T15:51:24.415Z,16.25
2019-04-26T15:54:02.735Z,15.13
2019-04-26T15:56:40.184Z,15.25
2019-04-26T15:59:18.423Z,15.72
2019-04-26T16:01:56.685Z,14.98
2019-04-26T16:04:34.502Z,14.98
2019-04-26T16:07:15.084Z,14.28
2019-04-26T16:09:54.893Z,15.48
2019-04-26T16:12:32.100Z,14.43
2019-04-26T16:15:11.407Z,13.98
2019-04-26T16:17:49.839Z,14.50
2019-04-26T16:20:31.146Z,15.38
2019-04-26T16:23:07.468Z,15.08
2019-04-26T16:25:45.354Z,14.00
2019-04-26T16:28:42.383Z,13.28
2019-04-26T16:31:46.062Z,15.70
2019-04-26T16:34:23.354Z,14.68
2019-04-26T16:37:02.929Z,15.75
2019-04-26T16:39:40.767Z,18.23
2019-04-26T16:42:18.519Z,19.42
2019-04-26T16:44:56.766Z,15.45
2019-04-26T16:47:44.958Z,16.40
2019-04-26T16:50:31.472Z,15.38
2019-04-26T16:53:05.318Z,15.45
2019-04-26T16:58:24.639Z,15.03
2019-04-26T17:00:43.140Z,15.83
2019-04-26T17:01:04.497Z,17.00
2019-04-26T17:03:45.105Z,20.25
2019-04-26T17:06:19.858Z,19.67
2019-04-26T17:09:01.195Z,17.12
2019-04-26T17:11:41.418Z,15.20
2019-04-26T17:14:18.512Z,16.65
2019-04-26T17:16:55.908Z,14.45
2019-04-26T17:19:34.243Z,15.50
2019-04-26T17:22:23.223Z,18.00
2019-04-26T17:25:12.562Z,15.08
2019-04-26T17:27:50.399Z,17.48
2019-04-26T17:30:28.275Z,16.93
2019-04-26T17:33:05.993Z,16.55
2019-04-26T17:35:43.495Z,16.05
2019-04-26T17:38:22.426Z,16.25
2019-04-26T17:41:00.647Z,18.25
2019-04-26T17:43:40.793Z,17.48
2019-04-26T17:46:18.560Z,17.52
2019-04-26T17:48:57.163Z,19.35
2019-04-26T17:51:41.749Z,20.40
2019-04-26T17:54:41.127Z,17.40
2019-04-26T17:56:53.301Z,17.73
2019-04-26T17:59:34.602Z,17.80
2019-04-26T18:02:25.594Z,18.73
2019-04-26T18:04:58.858Z,16.52
2019-04-26T18:07:42.900Z,17.12
2019-04-26T18:10:10.383Z,16.20
2019-04-26T18:12:48.279Z,17.67
2019-04-26T18:15:26.010Z,18.50
2019-04-26T18:18:28.890Z,17.40
2019-04-26T18:21:24.327Z,17.70
2019-04-26T18:24:02.840Z,16.50
2019-04-26T18:26:40.437Z,19.23
2019-04-26T18:29:19.583Z,17.05
2019-04-26T18:31:59.077Z,17.87
2019-04-26T18:34:40.259Z,19.05
2019-04-26T18:37:15.741Z,20.23
2019-04-26T18:39:57.500Z,19.48
2019-04-26T18:42:37.252Z,17.60
2019-04-26T18:45:13.938Z,17.48
2019-04-26T18:47:54.860Z,17.00
2019-04-26T18:50:32.770Z,17.25
2019-04-26T18:53:30.536Z,18.05
2019-04-26T18:56:07.530Z,17.62
2019-04-26T18:58:45.002Z,17.67
2019-04-26T19:01:22.401Z,17.90
2019-04-26T19:04:00.668Z,19.77
2019-04-26T19:06:42.340Z,19.00
2019-04-26T19:09:21.317Z,20.77
2019-04-26T19:11:59.192Z,19.50
2019-04-26T19:15:07.535Z,19.90
2019-04-26T19:18:00.235Z,20.15
2019-04-26T19:21:05.405Z,18.73
2019-04-26T19:23:42.681Z,19.50
2019-04-26T19:26:32.339Z,19.25
2019-04-26T19:29:02.109Z,18.50
2019-04-26T19:31:42.881Z,20.10
2019-04-26T19:34:21.871Z,18.57
2019-04-26T19:37:03.262Z,17.40
2019-04-26T19:39:42.719Z,16.05
2019-04-26T19:45:11.971Z,16.23
2019-04-26T19:47:55.429Z,16.37
2019-04-26T19:50:54.757Z,14.47
2019-04-26T19:53:54.154Z,14.30
2019-04-26T19:56:42.556Z,15.45
2019-04-26T19:59:21.893Z,16.05
2019-04-26T20:01:59.187Z,17.32
2019-04-26T20:04:36.783Z,17.20
2019-04-26T20:07:15.351Z,15.65
2019-04-26T20:09:56.309Z,16.27
2019-04-26T20:12:35.430Z,16.87
2019-04-26T20:15:25.155Z,17.62
2019-04-26T20:17:59.281Z,17.42
2019-04-26T20:20:34.534Z,19.95
2019-04-26T20:23:09.770Z,17.15
2019-04-26T20:25:47.867Z,17.70
2019-04-26T20:28:25.320Z,17.27
2019-04-26T20:31:28.024Z,15.48
2019-04-26T20:34:14.375Z,17.40
2019-04-26T20:36:49.196Z,18.20
2019-04-26T20:39:26.576Z,17.48
2019-04-26T20:42:04.425Z,18.75
2019-04-26T20:44:48.982Z,17.45
2019-04-26T20:47:21.684Z,17.17
2019-04-26T20:50:01.304Z,18.12
2019-04-26T20:52:38.786Z,17.25
2019-04-26T20:55:16.460Z,15.90
2019-04-26T20:57:53.884Z,16.85
2019-04-26T21:00:31.810Z,15.30
2019-04-26T21:03:23.045Z,15.72
2019-04-26T21:05:58.850Z,16.85
2019-04-26T21:08:31.623Z,16.17
2019-04-26T21:11:11.493Z,15.48
2019-04-26T21:13:48.831Z,16.42
2019-04-26T21:16:26.724Z,18.48
2019-04-26T21:19:04.661Z,16.20
2019-04-26T21:21:48.310Z,14.95
2019-04-26T21:24:23.780Z,15.10
2019-04-26T21:27:16.849Z,14.58
2019-04-26T21:30:16.534Z,15.55
2019-04-26T21:33:04.742Z,15.53
2019-04-26T21:35:48.506Z,14.65
2019-04-26T21:38:30.658Z,15.60
2019-04-26T21:41:14.113Z,15.18
2019-04-26T21:43:53.287Z,17.05
2019-04-26T21:46:30.746Z,15.28
2019-04-26T21:49:08.175Z,15.60
2019-04-26T21:51:51.247Z,15.78
2019-04-26T21:54:25.463Z,15.83
2019-04-26T21:57:03.912Z,17.45
2019-04-26T21:59:43.888Z,17.85
2019-04-26T22:02:20.951Z,18.07
2019-04-26T22:05:11.650Z,17.45
2019-04-26T22:07:49.213Z,17.87
2019-04-26T22:10:35.592Z,18.55
2019-04-26T22:13:15.194Z,18.57
2019-04-26T22:16:34.098Z,14.43
2019-04-26T22:19:12.730Z,16.20
2019-04-26T22:22:15.139Z,14.87
2019-04-26T22:27:28.232Z,15.20
2019-04-26T22:30:10.282Z,15.13
2019-04-26T22:32:48.451Z,15.85
2019-04-26T22:35:26.023Z,17.32
2019-04-26T22:38:04.039Z,17.23
2019-04-26T22:40:41.591Z,18.23
2019-04-26T22:43:54.000Z,18.15
2019-04-26T22:46:51.079Z,18.65
2019-04-26T22:49:28.356Z,17.52
2019-04-26T22:52:06.269Z,16.05
2019-04-26T22:54:46.641Z,17.10
2019-04-26T22:57:25.583Z,18.45
2019-04-26T23:00:03.239Z,16.95
2019-04-26T23:02:43.670Z,16.02
2019-04-26T23:05:23.068Z,16.90
2019-04-26T23:08:03.349Z,15.88
2019-04-26T23:10:46.182Z,16.45
2019-04-26T23:13:49.176Z,16.90
2019-04-26T23:17:01.557Z,16.27
2019-04-26T23:19:57.375Z,19.10
2019-04-26T23:22:35.406Z,19.57
2019-04-26T23:25:13.675Z,14.95
2019-04-26T23:27:56.725Z,17.42
2019-04-26T23:30:31.709Z,16.52
2019-04-26T23:33:09.277Z,16.82
2019-04-26T23:35:47.697Z,16.05
2019-04-26T23:38:26.080Z,15.20
2019-04-26T23:41:07.073Z,17.73
2019-04-26T23:43:42.715Z,12.18
2019-04-26T23:46:22.850Z,13.10
2019-04-26T23:49:02.921Z,14.13
2019-04-26T23:51:43.123Z,14.28
2019-04-26T23:54:19.606Z,13.18
2019-04-26T23:56:57.927Z,12.30
2019-04-26T23:59:37.191Z,15.40
